Time;durP1;ratioP1;P1;durP2;ratioP2;P2;SDS_P1;SDS_P2;PMS_P1;PMS_P2;Temp;Humidity;BMP_temperature;BMP_pressure;BME280_temperature;BME280_humidity;BME280_pressure;Samples;Min_cycle;Max_cycle;Signal;HPM_P1;HPM_P2
2023/09/16 00:02:05;;;;;;;7.4;6.1;;;;;;;16.3;99.93848;937.4967;;;;
2023/09/16 00:04:30;;;;;;;7.3;5.8;;;;;;;16.35;98.93457;937.5087;;;;
2023/09/16 00:06:56;;;;;;;6.8;5.6;;;;;;;16.35;98.28516;937.5153;;;;
2023/09/16 00:09:21;;;;;;;7;5.5;;;;;;;16.26;98.5791;937.5637;;;;
2023/09/16 00:11:46;;;;;;;6.9;5.1;;;;;;;16.3;98.52734;937.5151;;;;
2023/09/16 00:14:12;;;;;;;7;5.9;;;;;;;16.23;98.97559;937.512;;;;
2023/09/16 00:16:37;;;;;;;7.8;5.4;;;;;;;16.26;98.68359;937.4683;;;;
2023/09/16 00:19:04;;;;;;;8.1;5.6;;;;;;;16.28;97.86426;937.3981;;;;
2023/09/16 00:21:28;;;;;;;6.8;5.5;;;;;;;16.29;98.38672;937.4567;;;;
2023/09/16 00:23:55;;;;;;;7.7;5.6;;;;;;;16.24;98.2959;937.4814;;;;
2023/09/16 00:26:20;;;;;;;6.2;5.2;;;;;;;16.13;99.03418;937.509;;;;
2023/09/16 00:28:46;;;;;;;6.7;5.6;;;;;;;16.21;98.16211;937.4967;;;;
2023/09/16 00:31:11;;;;;;;6.7;5.4;;;;;;;16.26;98.41504;937.4956;;;;
2023/09/16 00:33:36;;;;;;;6.5;5.2;;;;;;;16.3;98.14746;937.4886;;;;
2023/09/16 00:36:02;;;;;;;7.3;5.5;;;;;;;16.28;97.40137;937.5017;;;;
2023/09/16 00:38:26;;;;;;;7.6;5.5;;;;;;;16.28;97.55176;937.4584;;;;
2023/09/16 00:40:52;;;;;;;9.3;6;;;;;;;16.2;98.92383;937.4109;;;;
2023/09/16 00:43:17;;;;;;;6.5;5.5;;;;;;;16.1;99.34961;937.4211;;;;
2023/09/16 00:45:42;;;;;;;6.8;5.5;;;;;;;16;99.78027;937.4855;;;;
2023/09/16 00:48:07;;;;;;;6.9;5.6;;;;;;;15.97;100;937.4844;;;;
2023/09/16 00:50:32;;;;;;;6.7;5.6;;;;;;;15.81;100;937.5148;;;;
2023/09/16 00:52:59;;;;;;;7.7;5.6;;;;;;;15.9;100;937.3945;;;;
2023/09/16 00:55:25;;;;;;;6.9;5.8;;;;;;;15.91;100;937.5099;;;;
2023/09/16 00:57:49;;;;;;;7.3;5.6;;;;;;;15.82;99.91309;937.5287;;;;
2023/09/16 01:00:16;;;;;;;8;5.2;;;;;;;15.89;99.93848;937.5119;;;;
2023/09/16 01:02:39;;;;;;;6.3;5.3;;;;;;;15.97;99.55273;937.5197;;;;
2023/09/16 01:05:04;;;;;;;6.8;5.3;;;;;;;15.95;99.58496;937.5062;;;;
2023/09/16 01:07:29;;;;;;;5.9;5.2;;;;;;;15.85;99.81445;937.4416;;;;
2023/09/16 01:09:56;;;;;;;6.9;5.6;;;;;;;15.83;100;937.4724;;;;
2023/09/16 01:12:21;;;;;;;6.9;5.1;;;;;;;15.89;100;937.4741;;;;
2023/09/16 01:14:47;;;;;;;6;5.1;;;;;;;15.84;100;937.4442;;;;
2023/09/16 01:17:12;;;;;;;7.2;5.2;;;;;;;15.8;100;937.4106;;;;
2023/09/16 01:19:40;;;;;;;6.7;5.1;;;;;;;15.8;100;937.4564;;;;
2023/09/16 01:22:04;;;;;;;6;5.2;;;;;;;15.48;100;937.4442;;;;
2023/09/16 01:24:29;;;;;;;6.1;5.5;;;;;;;15.59;100;937.3389;;;;
2023/09/16 01:26:54;;;;;;;6.3;5;;;;;;;15.69;100;937.4384;;;;
2023/09/16 01:29:20;;;;;;;6.8;5.1;;;;;;;15.74;100;937.445;;;;
2023/09/16 01:31:45;;;;;;;7.5;4.8;;;;;;;15.85;99.74512;937.4658;;;;
2023/09/16 01:34:11;;;;;;;6.4;5.1;;;;;;;15.94;98.95703;937.5072;;;;
2023/09/16 01:36:36;;;;;;;6.3;4.7;;;;;;;15.95;99.0625;937.4131;;;;
2023/09/16 01:39:02;;;;;;;6.2;5.2;;;;;;;15.91;99.06445;937.4377;;;;
2023/09/16 01:41:26;;;;;;;7;4.6;;;;;;;16.03;98.37402;937.4397;;;;
2023/09/16 01:43:51;;;;;;;6.4;4.7;;;;;;;16.05;97.39746;937.4475;;;;
2023/09/16 01:46:17;;;;;;;6;4.9;;;;;;;15.9;97.87402;937.4675;;;;
2023/09/16 01:48:42;;;;;;;5.1;4.3;;;;;;;15.92;97.94727;937.4785;;;;
2023/09/16 01:51:07;;;;;;;5.7;4.7;;;;;;;15.9;97.69824;937.4731;;;;
2023/09/16 01:53:32;;;;;;;7.9;4.6;;;;;;;15.65;99.23828;937.4751;;;;
2023/09/16 01:55:57;;;;;;;5.8;4.2;;;;;;;15.65;99.59668;937.5223;;;;
2023/09/16 01:58:22;;;;;;;5;4.3;;;;;;;15.72;98.63086;937.5047;;;;
2023/09/16 02:00:48;;;;;;;5.8;4.7;;;;;;;15.56;100;937.551;;;;
2023/09/16 02:03:13;;;;;;;4.7;4.1;;;;;;;15.42;100;937.5267;;;;
2023/09/16 02:05:38;;;;;;;5.8;4.2;;;;;;;15.35;100;937.5552;;;;
2023/09/16 02:08:03;;;;;;;5.5;4.3;;;;;;;15.01;100;937.5161;;;;
2023/09/16 02:10:28;;;;;;;5.1;4.6;;;;;;;15.15;100;937.5761;;;;
2023/09/16 02:12:53;;;;;;;6.6;4.4;;;;;;;15.18;100;937.5597;;;;
2023/09/16 02:15:18;;;;;;;5.5;4.6;;;;;;;15.2;100;937.5491;;;;
2023/09/16 02:17:43;;;;;;;4.4;4;;;;;;;15.19;100;937.6038;;;;
2023/09/16 02:20:10;;;;;;;5.3;4;;;;;;;15.2;100;937.6093;;;;
2023/09/16 02:22:34;;;;;;;4.7;4;;;;;;;15.1;100;937.5757;;;;
2023/09/16 02:24:59;;;;;;;8.3;5.1;;;;;;;15.2;100;937.611;;;;
2023/09/16 02:27:24;;;;;;;6.7;4.6;;;;;;;15.19;100;937.5516;;;;
2023/09/16 02:29:51;;;;;;;5.5;4.3;;;;;;;15.29;100;937.5533;;;;
2023/09/16 02:32:16;;;;;;;4.8;4.2;;;;;;;15.29;100;937.5638;;;;
2023/09/16 02:34:41;;;;;;;5.1;4.2;;;;;;;15.31;100;937.6093;;;;
2023/09/16 02:37:06;;;;;;;6.8;4.1;;;;;;;15.03;100;937.6534;;;;
2023/09/16 02:39:31;;;;;;;4.2;3.7;;;;;;;15.06;100;937.6772;;;;
2023/09/16 02:41:56;;;;;;;6;4.3;;;;;;;14.92;100;937.6548;;;;
2023/09/16 02:44:22;;;;;;;5.1;4.1;;;;;;;15.04;100;937.6389;;;;
2023/09/16 02:46:47;;;;;;;5.4;4.2;;;;;;;14.96;100;937.6553;;;;
2023/09/16 02:49:12;;;;;;;5.1;4;;;;;;;15.08;100;937.6602;;;;
2023/09/16 02:51:37;;;;;;;8.1;4.3;;;;;;;15.2;100;937.6462;;;;
2023/09/16 02:54:05;;;;;;;5.4;3.8;;;;;;;15.27;99.69434;937.7301;;;;
2023/09/16 02:56:28;;;;;;;4.5;3.9;;;;;;;15.25;99.97656;937.6917;;;;
2023/09/16 02:58:56;;;;;;;4.6;3.6;;;;;;;15.21;100;937.7206;;;;
2023/09/16 03:01:21;;;;;;;4.8;4.1;;;;;;;15.19;100;937.6655;;;;
2023/09/16 03:03:48;;;;;;;4.4;3.4;;;;;;;15.21;99.98047;937.7087;;;;
2023/09/16 03:06:14;;;;;;;3.7;3.3;;;;;;;15.12;100;937.6149;;;;
2023/09/16 03:08:40;;;;;;;4.6;3.6;;;;;;;15.19;100;937.6872;;;;
2023/09/16 03:11:05;;;;;;;4.1;3.6;;;;;;;15.18;99.96289;937.6865;;;;
2023/09/16 03:13:36;;;;;;;4;3.6;;;;;;;15.13;99.82324;937.6548;;;;
2023/09/16 03:16:01;;;;;;;4.2;3.6;;;;;;;15.1;99.58594;937.668;;;;
2023/09/16 03:18:26;;;;;;;3.9;3.5;;;;;;;15.14;99.58301;937.6925;;;;
2023/09/16 03:20:55;;;;;;;3.9;3.5;;;;;;;15.08;99.8916;937.6914;;;;
2023/09/16 03:23:26;;;;;;;5.6;3.4;;;;;;;15.16;99.15039;937.6674;;;;
2023/09/16 03:25:51;;;;;;;4.1;3.6;;;;;;;15.21;98.42188;937.6934;;;;
2023/09/16 03:28:21;;;;;;;4;3.6;;;;;;;15.17;98.31934;937.7058;;;;
2023/09/16 03:30:50;;;;;;;4.2;3.7;;;;;;;15.17;98.46973;937.6873;;;;
2023/09/16 03:33:20;;;;;;;4.8;3.4;;;;;;;15.02;99.58887;937.6334;;;;
2023/09/16 03:35:46;;;;;;;5.5;3.5;;;;;;;14.89;99.81348;937.6742;;;;
2023/09/16 03:38:11;;;;;;;4.4;3.8;;;;;;;14.81;100;937.685;;;;
2023/09/16 03:40:36;;;;;;;4.3;3.7;;;;;;;14.73;100;937.6239;;;;
2023/09/16 03:43:08;;;;;;;4.6;3.7;;;;;;;14.71;100;937.5808;;;;
2023/09/16 03:45:33;;;;;;;4.1;3.7;;;;;;;14.86;100;937.5815;;;;
2023/09/16 03:48:02;;;;;;;5.5;4;;;;;;;14.89;99.6543;937.4986;;;;
2023/09/16 03:50:28;;;;;;;4.9;3.9;;;;;;;14.89;99.94238;937.5724;;;;
2023/09/16 03:52:59;;;;;;;3.8;3.2;;;;;;;15;98.87109;937.5787;;;;
2023/09/16 03:55:25;;;;;;;5.1;3.6;;;;;;;14.99;97.93555;937.5403;;;;
2023/09/16 03:57:49;;;;;;;4.6;3.5;;;;;;;15;98.00684;937.5097;;;;
2023/09/16 04:00:16;;;;;;;3.9;3.4;;;;;;;14.86;98.97754;937.527;;;;
2023/09/16 04:02:44;;;;;;;4.2;3.7;;;;;;;14.77;99.79883;937.4737;;;;
2023/09/16 04:05:17;;;;;;;4.8;3.4;;;;;;;14.82;99.60352;937.4664;;;;
2023/09/16 04:07:50;;;;;;;4.9;3.5;;;;;;;14.79;99.46777;937.4288;;;;
2023/09/16 04:10:22;;;;;;;4.7;3.3;;;;;;;14.47;100;937.3395;;;;
2023/09/16 04:12:51;;;;;;;4.2;3.3;;;;;;;14.43;100;937.466;;;;
2023/09/16 04:15:17;;;;;;;4;3.6;;;;;;;14.53;100;937.3414;;;;
2023/09/16 04:17:41;;;;;;;4.2;3.4;;;;;;;14.57;100;937.3107;;;;
2023/09/16 04:20:15;;;;;;;4.4;3.5;;;;;;;14.57;100;937.3139;;;;
2023/09/16 04:22:40;;;;;;;4;3.4;;;;;;;14.68;99.30469;937.3022;;;;
2023/09/16 04:25:25;;;;;;;4.8;3.7;;;;;;;14.7;98.7793;937.3725;;;;
2023/09/16 04:27:54;;;;;;;4.5;3.7;;;;;;;14.75;98.13379;937.34;;;;
2023/09/16 04:30:22;;;;;;;5.1;3.7;;;;;;;14.66;99.95801;937.3688;;;;
2023/09/16 04:32:50;;;;;;;3.7;3.3;;;;;;;14.65;100;937.368;;;;
2023/09/16 04:35:17;;;;;;;5.5;3.2;;;;;;;14.68;100;937.3639;;;;
2023/09/16 04:37:49;;;;;;;4;3.4;;;;;;;14.61;100;937.3769;;;;
2023/09/16 04:40:24;;;;;;;3.7;3.3;;;;;;;14.64;99.65234;937.4275;;;;
2023/09/16 04:42:51;;;;;;;4.7;3.6;;;;;;;14.64;99.57324;937.4034;;;;
2023/09/16 04:45:15;;;;;;;7.4;3.8;;;;;;;14.6;100;937.4811;;;;
2023/09/16 04:47:47;;;;;;;4.9;3.6;;;;;;;14.65;100;937.425;;;;
2023/09/16 04:50:18;;;;;;;5;3.6;;;;;;;14.63;100;937.4756;;;;
2023/09/16 04:52:50;;;;;;;7.7;3.6;;;;;;;14.54;100;937.3926;;;;
2023/09/16 04:55:14;;;;;;;4;3.3;;;;;;;14.56;100;937.4109;;;;
2023/09/16 04:57:43;;;;;;;5.7;3;;;;;;;14.64;100;937.4275;;;;
2023/09/16 05:00:08;;;;;;;5.5;3.5;;;;;;;14.72;98.99219;937.3908;;;;
2023/09/16 05:02:38;;;;;;;4.2;3.3;;;;;;;14.77;98.51855;937.3214;;;;
2023/09/16 05:05:06;;;;;;;4.2;3.1;;;;;;;14.73;98.29102;937.4196;;;;
2023/09/16 05:07:31;;;;;;;4.1;3.2;;;;;;;14.67;99.02637;937.3856;;;;
2023/09/16 05:10:00;;;;;;;4.4;3.1;;;;;;;14.78;98.11719;937.3478;;;;
2023/09/16 05:12:26;;;;;;;3.4;3.1;;;;;;;14.86;97.37402;937.3675;;;;
2023/09/16 05:14:54;;;;;;;3.2;2.9;;;;;;;14.91;96.29102;937.3325;;;;
2023/09/16 05:17:19;;;;;;;4.3;3.2;;;;;;;14.83;96.4668;937.3253;;;;
2023/09/16 05:19:44;;;;;;;4.1;3.3;;;;;;;14.68;97.95898;937.3542;;;;
2023/09/16 05:22:12;;;;;;;3.7;3.2;;;;;;;14.65;99.20703;937.3889;;;;
2023/09/16 05:24:37;;;;;;;4;3.4;;;;;;;14.6;99.18262;937.353;;;;
2023/09/16 05:27:03;;;;;;;5;3.4;;;;;;;14.53;99.28418;937.3062;;;;
2023/09/16 05:29:28;;;;;;;5.5;3.6;;;;;;;14.32;100;937.4272;;;;
2023/09/16 05:31:57;;;;;;;3.9;3.4;;;;;;;14.38;100;937.4028;;;;
2023/09/16 05:34:27;;;;;;;4.3;3.4;;;;;;;14.5;100;937.3553;;;;
2023/09/16 05:36:52;;;;;;;4.2;3.2;;;;;;;14.52;99.4873;937.4064;;;;
2023/09/16 05:39:19;;;;;;;4.1;3.5;;;;;;;14.62;99.30469;937.3683;;;;
2023/09/16 05:41:44;;;;;;;5.6;3.2;;;;;;;14.76;98.63184;937.3567;;;;
2023/09/16 05:44:11;;;;;;;4;3.3;;;;;;;14.9;98.35156;937.42;;;;
2023/09/16 05:46:36;;;;;;;4.8;3.1;;;;;;;15.4;98.31445;937.3589;;;;
2023/09/16 05:49:09;;;;;;;4.4;2.6;;;;;;;15.78;94.33203;937.3915;;;;
2023/09/16 05:51:31;;;;;;;2.8;2.5;;;;;;;16.25;90.97461;937.4299;;;;
2023/09/16 05:53:58;;;;;;;3.8;2.1;;;;;;;16.78;88.59473;937.4325;;;;
2023/09/16 05:56:23;;;;;;;2.9;2.6;;;;;;;16.65;87.94238;937.4487;;;;
2023/09/16 05:58:50;;;;;;;2.7;2.2;;;;;;;16.7;87.82617;937.4949;;;;
2023/09/16 06:01:15;;;;;;;2.6;2.2;;;;;;;16.72;88.62891;937.4528;;;;
2023/09/16 06:03:42;;;;;;;2.8;2.3;;;;;;;16.98;88.60059;937.4529;;;;
2023/09/16 06:06:10;;;;;;;3.3;2.6;;;;;;;17.77;84.23145;937.4797;;;;
2023/09/16 06:08:39;;;;;;;2.7;2.4;;;;;;;18.11;82.06641;937.4613;;;;
2023/09/16 06:11:04;;;;;;;4.8;2.5;;;;;;;18.43;80.55566;937.4664;;;;
2023/09/16 06:13:31;;;;;;;4.5;2.5;;;;;;;18.32;80.61719;937.4814;;;;
2023/09/16 06:15:56;;;;;;;3.3;2.2;;;;;;;18.33;80.93359;937.3981;;;;
2023/09/16 06:18:21;;;;;;;4.1;2.6;;;;;;;18.45;81.07227;937.5214;;;;
2023/09/16 06:20:47;;;;;;;3.1;2.4;;;;;;;18.74;79.29785;937.4946;;;;
2023/09/16 06:23:14;;;;;;;2.9;2.6;;;;;;;18.52;79.59766;937.4731;;;;
2023/09/16 06:25:38;;;;;;;3.1;2.8;;;;;;;17.74;83.32129;937.4278;;;;
2023/09/16 06:28:05;;;;;;;3.2;2.6;;;;;;;17.62;84.6543;937.5016;;;;
2023/09/16 06:30:30;;;;;;;4.8;2.7;;;;;;;;;;;;;
2023/09/16 06:32:57;;;;;;;2.8;2.3;;;;;;;;;;;;;
2023/09/16 06:35:21;;;;;;;3.7;2.6;;;;;;;;;;;;;
2023/09/16 06:37:49;;;;;;;2.9;2.6;;;;;;;;;;;;;
2023/09/16 06:40:13;;;;;;;2.3;2.1;;;;;;;;;;;;;
2023/09/16 06:42:39;;;;;;;2.5;2.3;;;;;;;;;;;;;
2023/09/16 06:45:04;;;;;;;3.4;2.4;;;;;;;;;;;;;
2023/09/16 06:47:30;;;;;;;4.7;2.6;;;;;;;;;;;;;
2023/09/16 06:49:56;;;;;;;2.8;2.3;;;;;;;;;;;;;
2023/09/16 06:52:22;;;;;;;2.9;2.3;;;;;;;;;;;;;
2023/09/16 06:54:46;;;;;;;2.9;2.6;;;;;;;;;;;;;
2023/09/16 06:57:11;;;;;;;2.5;2.3;;;;;;;;;;;;;
2023/09/16 06:59:36;;;;;;;3.2;2.5;;;;;;;;;;;;;
2023/09/16 07:02:01;;;;;;;4.4;2.7;;;;;;;;;;;;;
2023/09/16 07:04:26;;;;;;;5.7;2.9;;;;;;;;;;;;;
2023/09/16 07:06:51;;;;;;;3.9;2.5;;;;;;;;;;;;;
2023/09/16 07:09:17;;;;;;;3.6;2.8;;;;;;;;;;;;;
2023/09/16 07:11:42;;;;;;;4.2;2.6;;;;;;;;;;;;;
2023/09/16 07:14:07;;;;;;;3.3;2.4;;;;;;;;;;;;;
2023/09/16 07:16:32;;;;;;;3.4;2.7;;;;;;;;;;;;;
2023/09/16 07:18:57;;;;;;;3.3;2.5;;;;;;;;;;;;;
2023/09/16 07:21:23;;;;;;;3;2.7;;;;;;;;;;;;;
2023/09/16 07:23:48;;;;;;;4.4;2.5;;;;;;;;;;;;;
2023/09/16 07:26:14;;;;;;;4.4;2.8;;;;;;;;;;;;;
2023/09/16 07:28:39;;;;;;;3.2;2.1;;;;;;;;;;;;;
2023/09/16 07:31:04;;;;;;;2.2;2;;;;;;;;;;;;;
2023/09/16 07:33:30;;;;;;;2.1;1.9;;;;;;;;;;;;;
2023/09/16 07:35:56;;;;;;;2.7;2.1;;;;;;;;;;;;;
2023/09/16 07:38:22;;;;;;;2.4;1.9;;;;;;;;;;;;;
2023/09/16 07:40:48;;;;;;;2.4;1.9;;;;;;;;;;;;;
2023/09/16 07:43:13;;;;;;;2.6;2;;;;;;;;;;;;;
2023/09/16 07:45:40;;;;;;;1.9;1.7;;;;;;;;;;;;;
2023/09/16 07:48:07;;;;;;;1.9;1.8;;;;;;;;;;;;;
2023/09/16 07:50:31;;;;;;;2.4;2;;;;;;;;;;;;;
2023/09/16 07:52:56;;;;;;;2.9;1.8;;;;;;;;;;;;;
2023/09/16 07:55:24;;;;;;;3.3;1.9;;;;;;;;;;;;;
2023/09/16 07:57:49;;;;;;;2.4;1.9;;;;;;;;;;;;;
2023/09/16 08:00:14;;;;;;;2.4;1.5;;;;;;;;;;;;;
2023/09/16 08:02:39;;;;;;;1.5;1.4;;;;;;;;;;;;;
2023/09/16 08:05:14;;;;;;;1.9;1.8;;;;;;;;;;;;;
2023/09/16 08:07:38;;;;;;;2.1;1.5;;;;;;;;;;;;;
2023/09/16 08:10:03;;;;;;;2.1;1.9;;;;;;;;;;;;;
2023/09/16 08:12:29;;;;;;;2.1;1.7;;;;;;;;;;;;;
2023/09/16 08:14:54;;;;;;;3.6;1.8;;;;;;;;;;;;;
2023/09/16 08:17:21;;;;;;;1.8;1.7;;;;;;;;;;;;;
2023/09/16 08:19:46;;;;;;;2.2;1.8;;;;;;;;;;;;;
2023/09/16 08:22:12;;;;;;;2.6;1.8;;;;;;;;;;;;;
2023/09/16 08:24:37;;;;;;;2.1;1.8;;;;;;;;;;;;;
2023/09/16 08:27:06;;;;;;;1.9;1.8;;;;;;;;;;;;;
2023/09/16 08:29:31;;;;;;;2;1.8;;;;;;;;;;;;;
2023/09/16 08:32:17;;;;;;;1.6;1.5;;;;;;;24.88;54.06152;937.0147;;;;
2023/09/16 08:34:43;;;;;;;1.7;1.6;;;;;;;24.66;53.15234;936.9807;;;;
2023/09/16 08:37:08;;;;;;;3.1;1.7;;;;;;;25.04;54.15234;937.0051;;;;
2023/09/16 08:39:33;;;;;;;1.8;1.7;;;;;;;25.19;53.94629;936.9481;;;;
2023/09/16 08:41:59;;;;;;;2.4;1.6;;;;;;;25.08;52.98926;936.9422;;;;
2023/09/16 08:44:28;;;;;;;1.8;1.7;;;;;;;25.21;51.72949;936.9014;;;;
2023/09/16 08:46:53;;;;;;;2.6;1.8;;;;;;;24.96;53.72949;936.9238;;;;
2023/09/16 08:49:18;;;;;;;2.1;1.9;;;;;;;25.55;52.07715;936.9662;;;;
2023/09/16 08:51:43;;;;;;;2.3;1.8;;;;;;;25.47;51.75977;936.9671;;;;
2023/09/16 08:54:09;;;;;;;1.6;1.5;;;;;;;26.09;51.20508;936.9673;;;;
2023/09/16 08:56:35;;;;;;;1.7;1.6;;;;;;;26.49;49.75879;936.9258;;;;
2023/09/16 08:59:00;;;;;;;1.9;1.7;;;;;;;26.16;47.2373;936.8831;;;;
2023/09/16 09:01:26;;;;;;;1.6;1.5;;;;;;;26.16;47.66309;936.923;;;;
2023/09/16 09:03:51;;;;;;;1.8;1.5;;;;;;;25.7;46.99902;936.8934;;;;
2023/09/16 09:06:18;;;;;;;1.6;1.5;;;;;;;25.94;46.20996;936.8755;;;;
2023/09/16 09:08:43;;;;;;;1.7;1.6;;;;;;;26.35;48.27539;936.845;;;;
2023/09/16 09:11:14;;;;;;;2.1;1.6;;;;;;;25.49;45.4541;936.8228;;;;
2023/09/16 09:13:35;;;;;;;1.6;1.3;;;;;;;26.18;45.13281;936.8452;;;;
2023/09/16 09:16:00;;;;;;;1.7;1.6;;;;;;;26.62;45.88867;936.7983;;;;
2023/09/16 09:18:28;;;;;;;3.9;1.6;;;;;;;26.95;44.75;936.7395;;;;
2023/09/16 09:20:53;;;;;;;1.5;1.4;;;;;;;26.9;42.71875;936.7457;;;;
2023/09/16 09:23:21;;;;;;;1.6;1.5;;;;;;;26.51;42.24219;936.8109;;;;
2023/09/16 09:25:46;;;;;;;1.6;1.5;;;;;;;26.58;43.19629;936.7949;;;;
2023/09/16 09:28:12;;;;;;;1.7;1.4;;;;;;;26.78;44.24609;936.7564;;;;
2023/09/16 09:30:39;;;;;;;2;1.6;;;;;;;26.98;45.00195;936.7656;;;;
2023/09/16 09:33:05;;;;;;;1.3;1.2;;;;;;;27.19;44.99902;936.715;;;;
2023/09/16 09:35:30;;;;;;;2.1;1.4;;;;;;;27.14;42.1123;936.7271;;;;
2023/09/16 09:37:57;;;;;;;2;1.6;;;;;;;26.73;43.3418;936.6962;;;;
2023/09/16 09:40:23;;;;;;;2.3;1.4;;;;;;;26.9;42.65918;936.6231;;;;
2023/09/16 09:42:48;;;;;;;2.1;1.3;;;;;;;26.95;42.90039;936.6032;;;;
2023/09/16 09:45:13;;;;;;;1.6;1.5;;;;;;;27.33;43.55371;936.66;;;;
2023/09/16 09:47:42;;;;;;;1.3;1.2;;;;;;;27.47;42.53418;936.6548;;;;
2023/09/16 09:50:08;;;;;;;1.5;1.4;;;;;;;27.58;41.53613;936.6342;;;;
2023/09/16 09:52:35;;;;;;;2.7;1.8;;;;;;;27.88;41.62402;936.6342;;;;
2023/09/16 09:55:00;;;;;;;1.5;1.3;;;;;;;28.11;42.74902;936.5894;;;;
2023/09/16 09:57:25;;;;;;;1.5;1.4;;;;;;;28.51;40.33789;936.6214;;;;
2023/09/16 09:59:51;;;;;;;1.3;1.2;;;;;;;27.76;40.81641;936.58;;;;
2023/09/16 10:02:17;;;;;;;1.8;1.5;;;;;;;27.78;41.40039;936.5762;;;;
2023/09/16 10:04:43;;;;;;;1.7;1.3;;;;;;;27.88;41.89648;936.5366;;;;
2023/09/16 10:07:08;;;;;;;2;1.3;;;;;;;27.88;40.51953;936.5605;;;;
2023/09/16 10:09:36;;;;;;;1.5;1.4;;;;;;;27.74;43.5459;936.5213;;;;
2023/09/16 10:12:01;;;;;;;2.4;1.7;;;;;;;28;41.95508;936.5125;;;;
2023/09/16 10:14:27;;;;;;;2.3;1.9;;;;;;;28.38;43.88086;936.5065;;;;
2023/09/16 10:16:52;;;;;;;3;1.6;;;;;;;28.77;42.4082;936.4531;;;;
2023/09/16 10:19:19;;;;;;;1.8;1.7;;;;;;;29.53;42.76563;936.5186;;;;
2023/09/16 10:21:44;;;;;;;3;1.7;;;;;;;29.58;44.35645;936.505;;;;
2023/09/16 10:24:12;;;;;;;1.8;1.6;;;;;;;29.36;44.3584;936.486;;;;
2023/09/16 10:26:38;;;;;;;1.5;1.4;;;;;;;29.29;43.3623;936.4978;;;;
2023/09/16 10:29:02;;;;;;;1.6;1.5;;;;;;;29.11;45.97656;936.5092;;;;
2023/09/16 10:31:27;;;;;;;2.1;1.9;;;;;;;28.91;44.89746;936.4849;;;;
2023/09/16 10:33:53;;;;;;;1.6;1.5;;;;;;;29.09;45.17676;936.4801;;;;
2023/09/16 10:36:18;;;;;;;5.1;2.9;;;;;;;29.87;40.75781;936.4872;;;;
2023/09/16 10:38:48;;;;;;;3.1;1.9;;;;;;;30.5;39.75195;936.4467;;;;
2023/09/16 10:41:13;;;;;;;1.5;1.4;;;;;;;30.1;40.6123;936.4352;;;;
2023/09/16 10:43:38;;;;;;;1.6;1.4;;;;;;;29.21;44.87891;936.4061;;;;
2023/09/16 10:46:10;;;;;;;1.7;1.5;;;;;;;29.26;45.71777;936.3758;;;;
2023/09/16 10:48:37;;;;;;;3.2;1.6;;;;;;;28.54;46.72754;936.3975;;;;
2023/09/16 10:51:02;;;;;;;2.5;1.6;;;;;;;28.94;45.45898;936.3448;;;;
2023/09/16 10:53:36;;;;;;;1.3;1.2;;;;;;;28.99;45.47754;936.3378;;;;
2023/09/16 10:55:55;;;;;;;2.7;1.5;;;;;;;28.91;47.12305;936.331;;;;
2023/09/16 10:58:20;;;;;;;2;1.7;;;;;;;28.47;44.21094;936.2706;;;;
2023/09/16 11:00:45;;;;;;;1.6;1.5;;;;;;;27.99;45.03125;936.279;;;;
2023/09/16 11:03:17;;;;;;;2.1;1.5;;;;;;;28.5;47.22168;936.3411;;;;
2023/09/16 11:05:42;;;;;;;1.7;1.4;;;;;;;28.63;46.84375;936.3088;;;;
2023/09/16 11:08:07;;;;;;;2.1;1.3;;;;;;;28.7;45.61426;936.2833;;;;
2023/09/16 11:10:34;;;;;;;1.9;1.7;;;;;;;29.03;45.01563;936.2758;;;;
2023/09/16 11:12:59;;;;;;;2.6;1.8;;;;;;;29.43;44.32813;936.2885;;;;
2023/09/16 11:15:29;;;;;;;2.7;1.8;;;;;;;29.46;47.15625;936.2178;;;;
2023/09/16 11:17:51;;;;;;;2;1.8;;;;;;;30.62;43.72949;936.2262;;;;
2023/09/16 11:20:16;;;;;;;1.8;1.7;;;;;;;31.82;40.98145;936.2341;;;;
2023/09/16 11:22:47;;;;;;;1.7;1.6;;;;;;;31.79;41.45801;936.2272;;;;
2023/09/16 11:25:06;;;;;;;1.7;1.6;;;;;;;32.52;40.45703;936.1945;;;;
2023/09/16 11:27:31;;;;;;;1.8;1.7;;;;;;;31.3;43.77148;936.1832;;;;
2023/09/16 11:29:57;;;;;;;1.7;1.6;;;;;;;30.86;42.71191;936.1278;;;;
2023/09/16 11:32:22;;;;;;;1.7;1.6;;;;;;;30.89;44.28125;936.1102;;;;
2023/09/16 11:34:47;;;;;;;1.9;1.8;;;;;;;29.94;44.78516;936.1191;;;;
2023/09/16 11:37:13;;;;;;;2;1.8;;;;;;;29.69;45.36816;936.1609;;;;
2023/09/16 11:39:40;;;;;;;1.7;1.6;;;;;;;29.71;45.13086;936.1473;;;;
2023/09/16 11:42:07;;;;;;;2.6;1.7;;;;;;;30.4;44.63965;936.1167;;;;
2023/09/16 11:44:31;;;;;;;2.1;1.6;;;;;;;30.7;42.60156;936.0927;;;;
2023/09/16 11:46:56;;;;;;;2;1.8;;;;;;;31.14;41.54297;936.0653;;;;
2023/09/16 11:49:21;;;;;;;2.4;1.7;;;;;;;31.26;41.32617;936.0435;;;;
2023/09/16 11:51:50;;;;;;;2.4;1.9;;;;;;;31.72;41.97949;935.9467;;;;
2023/09/16 11:54:11;;;;;;;2.1;1.9;;;;;;;31.59;40.81738;935.9222;;;;
2023/09/16 11:56:36;;;;;;;2.5;1.7;;;;;;;31.61;42.75879;935.9595;;;;
2023/09/16 11:59:02;;;;;;;2;1.6;;;;;;;30.9;43.99512;935.8917;;;;
2023/09/16 12:01:29;;;;;;;1.9;1.8;;;;;;;30.65;42.56152;935.8553;;;;
2023/09/16 12:03:53;;;;;;;2.9;1.7;;;;;;;30.21;44.11816;935.8727;;;;
2023/09/16 12:06:20;;;;;;;1.9;1.8;;;;;;;29.93;46.29883;935.8488;;;;
2023/09/16 12:08:45;;;;;;;2;1.8;;;;;;;29.94;45.5127;935.8438;;;;
2023/09/16 12:11:09;;;;;;;1.9;1.8;;;;;;;29.79;45.46191;935.7957;;;;
2023/09/16 12:15:32;;;;;;;1.7;1.5;;;;;;;29.74;44.89648;935.793;;;;
2023/09/16 12:17:57;;;;;;;2.4;2;;;;;;;29.7;45.27441;935.7051;;;;
2023/09/16 12:20:22;;;;;;;1.8;1.7;;;;;;;29.71;45.52539;935.7458;;;;
2023/09/16 12:22:48;;;;;;;2;1.9;;;;;;;29.27;46.38574;935.7692;;;;
2023/09/16 12:25:12;;;;;;;2.1;1.9;;;;;;;28.71;48.46973;935.8083;;;;
2023/09/16 12:27:37;;;;;;;2.1;1.9;;;;;;;28.33;49.08301;935.7056;;;;
2023/09/16 12:30:02;;;;;;;2.2;2;;;;;;;28.42;47.74902;935.7581;;;;
2023/09/16 12:32:31;;;;;;;2.3;2.1;;;;;;;28.53;48.04688;935.7614;;;;
2023/09/16 12:34:56;;;;;;;2.3;2.1;;;;;;;28.43;50.55664;935.7346;;;;
2023/09/16 12:37:22;;;;;;;2.2;1.9;;;;;;;28.04;50.21582;935.6589;;;;
2023/09/16 12:39:47;;;;;;;2.1;1.9;;;;;;;28.46;49.91699;935.7004;;;;
2023/09/16 12:42:12;;;;;;;4.1;2.2;;;;;;;28.71;48.36426;935.6588;;;;
2023/09/16 12:44:40;;;;;;;2.2;2;;;;;;;28.58;51.52539;935.644;;;;
2023/09/16 12:47:03;;;;;;;3.6;2.2;;;;;;;28.38;49.91992;935.6945;;;;
2023/09/16 12:49:29;;;;;;;3.1;2.3;;;;;;;28.19;50.64844;935.6578;;;;
2023/09/16 12:51:54;;;;;;;2.9;2.3;;;;;;;28.43;51.3291;935.6985;;;;
2023/09/16 12:54:22;;;;;;;2.2;2;;;;;;;28.62;49.00781;935.722;;;;
2023/09/16 12:56:47;;;;;;;2.4;2.2;;;;;;;28.52;51.21973;935.6861;;;;
2023/09/16 12:59:13;;;;;;;3.1;2.7;;;;;;;28.53;48.33105;935.6199;;;;
2023/09/16 13:01:38;;;;;;;2.8;2.5;;;;;;;28.51;48.9834;935.5933;;;;
2023/09/16 13:04:06;;;;;;;3.9;2.4;;;;;;;28.42;49.18848;935.5664;;;;
2023/09/16 13:06:31;;;;;;;3.7;2.5;;;;;;;28.45;47.85938;935.5222;;;;
2023/09/16 13:08:57;;;;;;;4.5;2.5;;;;;;;28.4;47.83105;935.5684;;;;
2023/09/16 13:11:21;;;;;;;3.1;2.2;;;;;;;28.41;47.61719;935.4774;;;;
2023/09/16 13:13:52;;;;;;;2.9;2.4;;;;;;;28.46;50.42969;935.5297;;;;
2023/09/16 13:16:13;;;;;;;2.2;2;;;;;;;28.45;48.0625;935.5392;;;;
2023/09/16 13:18:38;;;;;;;2.4;2.2;;;;;;;28.44;47.71582;935.5671;;;;
2023/09/16 13:21:03;;;;;;;2.5;2.3;;;;;;;28.33;47.71582;935.5206;;;;
2023/09/16 13:23:29;;;;;;;2.5;2.2;;;;;;;28.35;47.07617;935.4449;;;;
2023/09/16 13:25:56;;;;;;;3.5;2.2;;;;;;;28.16;48.36328;935.4885;;;;
2023/09/16 13:28:21;;;;;;;2.4;2.2;;;;;;;28.22;48.22656;935.4789;;;;
2023/09/16 13:30:48;;;;;;;2.3;2.1;;;;;;;28.34;49.15527;935.5029;;;;
2023/09/16 13:33:13;;;;;;;3.1;2.5;;;;;;;28;51.04297;935.6094;;;;
2023/09/16 13:35:37;;;;;;;2.3;2.1;;;;;;;27.81;50.29688;935.6139;;;;
2023/09/16 13:38:04;;;;;;;3.4;2.2;;;;;;;27.84;50.25195;935.6195;;;;
2023/09/16 13:40:29;;;;;;;2.2;1.9;;;;;;;28;47.87109;935.5858;;;;
2023/09/16 13:42:54;;;;;;;2.3;2.1;;;;;;;28.32;47.81055;935.5612;;;;
2023/09/16 13:45:19;;;;;;;2.6;2;;;;;;;28.18;48.36621;935.5222;;;;
2023/09/16 13:47:45;;;;;;;2;1.9;;;;;;;28.32;48.28613;935.5449;;;;
2023/09/16 13:50:10;;;;;;;2.2;2;;;;;;;28.36;49.68066;935.5305;;;;
2023/09/16 13:52:38;;;;;;;2.2;2;;;;;;;28.09;49.12793;935.4716;;;;
2023/09/16 13:55:03;;;;;;;2.3;2;;;;;;;27.97;50.99219;935.4033;;;;
2023/09/16 13:57:29;;;;;;;1.9;1.8;;;;;;;28.03;50.47656;935.3989;;;;
2023/09/16 13:59:54;;;;;;;2;1.8;;;;;;;28.13;50.03613;935.3819;;;;
2023/09/16 14:02:20;;;;;;;2.8;2.2;;;;;;;28.01;50.38965;935.4041;;;;
2023/09/16 14:04:45;;;;;;;2.4;2.2;;;;;;;27.9;49.42871;935.4356;;;;
2023/09/16 14:07:14;;;;;;;2.2;2;;;;;;;27.9;50.6748;935.4481;;;;
2023/09/16 14:09:38;;;;;;;3.4;2.4;;;;;;;27.65;50.125;935.4534;;;;
2023/09/16 14:12:03;;;;;;;2.5;2.1;;;;;;;27.58;50.44922;935.4919;;;;
2023/09/16 14:14:29;;;;;;;2.3;2.1;;;;;;;27.31;51.77148;935.5189;;;;
2023/09/16 14:16:55;;;;;;;3;2;;;;;;;27.25;51.87012;935.5043;;;;
2023/09/16 14:19:20;;;;;;;2.1;1.9;;;;;;;27.29;52.11328;935.565;;;;
2023/09/16 14:21:46;;;;;;;3;2.4;;;;;;;27.1;52.63672;935.5683;;;;
2023/09/16 14:24:12;;;;;;;3.2;2.5;;;;;;;26.93;52.91113;935.5504;;;;
2023/09/16 14:26:37;;;;;;;2.3;2.1;;;;;;;27;52.69531;935.5652;;;;
2023/09/16 14:29:02;;;;;;;2.6;2.3;;;;;;;27.15;52.28613;935.5662;;;;
2023/09/16 14:32:18;;;;;;;4.1;2.4;;;;;;;27.24;51.67969;935.5769;;;;
2023/09/16 14:34:43;;;;;;;2.3;2.1;;;;;;;27.26;51.6582;935.5285;;;;
2023/09/16 14:37:08;;;;;;;2.1;1.9;;;;;;;27.22;53.21875;935.5483;;;;
2023/09/16 14:39:33;;;;;;;2.1;1.9;;;;;;;27.22;53.04102;935.5539;;;;
2023/09/16 14:41:59;;;;;;;3.3;2.2;;;;;;;27.25;52.96191;935.6237;;;;
2023/09/16 14:44:24;;;;;;;2.8;2.3;;;;;;;27.42;52.23438;935.6152;;;;
2023/09/16 14:46:49;;;;;;;2.6;2.3;;;;;;;27.49;52.39746;935.6375;;;;
2023/09/16 14:49:14;;;;;;;1.8;1.7;;;;;;;27.55;52.53418;935.5898;;;;
2023/09/16 14:51:44;;;;;;;2;1.8;;;;;;;27.26;52.32227;935.5906;;;;
2023/09/16 14:54:04;;;;;;;2.5;2.1;;;;;;;27.04;52.46289;935.5111;;;;
2023/09/16 14:56:29;;;;;;;2.9;2.1;;;;;;;27;52.69531;935.5773;;;;
2023/09/16 14:58:54;;;;;;;3.2;2.1;;;;;;;27.04;53.16211;935.5916;;;;
2023/09/16 15:01:20;;;;;;;2.6;2.4;;;;;;;26.93;53.75293;935.5831;;;;
2023/09/16 15:03:45;;;;;;;2.1;1.9;;;;;;;26.61;54.31836;935.6565;;;;
2023/09/16 15:06:10;;;;;;;2.9;2.3;;;;;;;26.58;53.58105;935.637;;;;
2023/09/16 15:08:35;;;;;;;2.6;2.1;;;;;;;26.67;54.07813;935.6295;;;;
2023/09/16 15:11:01;;;;;;;2.1;2;;;;;;;26.74;53.24512;935.5851;;;;